Shinkai Maru — JJ4012 — position and weather

sailwx.info

Track history (hours):
 
Tides and Currents Weather Stations Pressure Air Temp Water Temp Dewpoint Dewpoint Depression Visibility Wind Speed Wind Dir Waves Ship Positions

Shinkai Maru

Last reported at 2014-Nov-27 02:33 UTC. Time now 2014-Nov-27 02:50 UTC.
Position N 34°36' E 135°03'.

Length 76 m; draft 3.4 m.

Type: Cargo ship. MMSI: 431301346.

Date/timePositionNaut miles runAvg speedWind from/ knotsBaromVisibWave heightAir tempDewpointWater temp
2014-Nov-27 02:33N 34°36' E 135°03'8 8.2
2014-Nov-27 01:33N 34°37' E 134°53'2 0.1
2014-Nov-25 21:22N 34°39' E 134°51'910.8
2014-Nov-25 20:33N 34°37' E 135°02'8 7.8
2014-Nov-25 19:33N 34°30' E 135°04'1410.6
2014-Nov-25 18:17N 34°17' E 134°59'710.2
2014-Nov-25 17:33N 34°09' E 135°00'244 9.4
2014-Nov-24 15:33N 35°16' E 139°46'9 9.4
2014-Nov-24 14:33N 35°26' E 139°46'6 5.7
2014-Nov-24 13:32N 35°22' E 139°51'0 0.0
2014-Nov-24 12:26N 35°22' E 139°51'0 0.0
2014-Nov-24 11:17N 35°22' E 139°51'0 0.0
2014-Nov-24 10:14N 35°22' E 139°51'0 0.0
2014-Nov-24 09:32N 35°22' E 139°51'0 0.0
2014-Nov-24 07:29N 35°22' E 139°51'0 0.2
2014-Nov-24 05:21N 35°21' E 139°51'4 4.4
2014-Nov-24 04:32N 35°25' E 139°50'3 0.1
2014-Nov-22 21:23N 35°28' E 139°51'911.5
2014-Nov-22 20:33N 35°20' E 139°45'243 9.0
2014-Nov-21 17:33N 34°19' E 134°58'1212.4
2014-Nov-21 16:33N 34°31' E 135°02'1210.6
2014-Nov-21 15:28N 34°39' E 134°51'0 0.0
2014-Nov-20 09:30N 34°39' E 134°51'1313.2
2014-Nov-20 08:33N 34°36' E 135°06'9 9.6
2014-Nov-20 07:34N 34°42' E 135°15'0 0.3
2014-Nov-20 06:34N 34°42' E 135°15'0 0.0
2014-Nov-20 05:10N 34°42' E 135°15'0 0.0
2014-Nov-20 04:28N 34°42' E 135°15'0 0.0
2014-Nov-20 03:28N 34°42' E 135°15'0 0.0
2014-Nov-20 02:28N 34°42' E 135°15'0 0.0
2014-Nov-20 01:34N 34°42' E 135°15'0 0.0
2014-Nov-20 00:34N 34°42' E 135°15'0 0.0
2014-Nov-19 23:28N 34°42' E 135°15'0 0.5
2014-Nov-19 22:33N 34°42' E 135°15'2 1.9
2014-Nov-19 21:33N 34°40' E 135°15'8 8.3
2014-Nov-19 20:33N 34°35' E 135°07'9 8.8
2014-Nov-19 19:32N 34°36' E 134°56'2 0.2
2014-Nov-19 09:19N 34°37' E 134°54'1012.5
2014-Nov-19 08:33N 34°34' E 135°05'1912.6
2014-Nov-19 07:04N 34°16' E 134°59'612.0
2014-Nov-19 06:33N 34°10' E 134°60'243 9.3
2014-Nov-18 04:33N 35°19' E 139°43'1010.4
2014-Nov-18 03:33N 35°28' E 139°49'2 0.1
2014-Nov-17 08:15N 35°29' E 139°51'811.9
2014-Nov-17 07:33N 35°22' E 139°45'  
Track history (hours):
 
Tides and Currents Weather Stations Pressure Air Temp Water Temp Dewpoint Dewpoint Depression Visibility Wind Speed Wind Dir Waves Ship Positions

Shinkai Maru

Last reported at 2014-Nov-27 02:33 UTC. Time now 2014-Nov-27 02:50 UTC.
Position N 34°36' E 135°03'.

Length 76 m; draft 3.4 m.

Type: Cargo ship. MMSI: 431301346.

Date/timePositionNaut miles runAvg speedWind from/ knotsBaromVisibWave heightAir tempDewpointWater temp
2014-Nov-27 02:33N 34°36' E 135°03'8 8.2
2014-Nov-27 01:33N 34°37' E 134°53'2 0.1
2014-Nov-25 21:22N 34°39' E 134°51'910.8
2014-Nov-25 20:33N 34°37' E 135°02'8 7.8
2014-Nov-25 19:33N 34°30' E 135°04'1410.6
2014-Nov-25 18:17N 34°17' E 134°59'710.2
2014-Nov-25 17:33N 34°09' E 135°00'244 9.4
2014-Nov-24 15:33N 35°16' E 139°46'9 9.4
2014-Nov-24 14:33N 35°26' E 139°46'6 5.7
2014-Nov-24 13:32N 35°22' E 139°51'0 0.0
2014-Nov-24 12:26N 35°22' E 139°51'0 0.0
2014-Nov-24 11:17N 35°22' E 139°51'0 0.0
2014-Nov-24 10:14N 35°22' E 139°51'0 0.0
2014-Nov-24 09:32N 35°22' E 139°51'0 0.0
2014-Nov-24 07:29N 35°22' E 139°51'0 0.2
2014-Nov-24 05:21N 35°21' E 139°51'4 4.4
2014-Nov-24 04:32N 35°25' E 139°50'3 0.1
2014-Nov-22 21:23N 35°28' E 139°51'911.5
2014-Nov-22 20:33N 35°20' E 139°45'243 9.0
2014-Nov-21 17:33N 34°19' E 134°58'1212.4
2014-Nov-21 16:33N 34°31' E 135°02'1210.6
2014-Nov-21 15:28N 34°39' E 134°51'0 0.0
2014-Nov-20 09:30N 34°39' E 134°51'1313.2
2014-Nov-20 08:33N 34°36' E 135°06'9 9.6
2014-Nov-20 07:34N 34°42' E 135°15'0 0.3
2014-Nov-20 06:34N 34°42' E 135°15'0 0.0
2014-Nov-20 05:10N 34°42' E 135°15'0 0.0
2014-Nov-20 04:28N 34°42' E 135°15'0 0.0
2014-Nov-20 03:28N 34°42' E 135°15'0 0.0
2014-Nov-20 02:28N 34°42' E 135°15'0 0.0
2014-Nov-20 01:34N 34°42' E 135°15'0 0.0
2014-Nov-20 00:34N 34°42' E 135°15'0 0.0
2014-Nov-19 23:28N 34°42' E 135°15'0 0.5
2014-Nov-19 22:33N 34°42' E 135°15'2 1.9
2014-Nov-19 21:33N 34°40' E 135°15'8 8.3
2014-Nov-19 20:33N 34°35' E 135°07'9 8.8
2014-Nov-19 19:32N 34°36' E 134°56'2 0.2
2014-Nov-19 09:19N 34°37' E 134°54'1012.5
2014-Nov-19 08:33N 34°34' E 135°05'1912.6
2014-Nov-19 07:04N 34°16' E 134°59'612.0
2014-Nov-19 06:33N 34°10' E 134°60'243 9.3
2014-Nov-18 04:33N 35°19' E 139°43'1010.4
2014-Nov-18 03:33N 35°28' E 139°49'2 0.1
2014-Nov-17 08:15N 35°29' E 139°51'811.9
2014-Nov-17 07:33N 35°22' E 139°45'  

Dump ship's entire track history